sensor_id;sensor_type;location;lat;lon;timestamp;temperature;humidity
19755;DHT22;10036;47.812;9.274;2023-12-20T00:00:57;4.40;99.90
19755;DHT22;10036;47.812;9.274;2023-12-20T00:03:24;4.40;99.90
19755;DHT22;10036;47.812;9.274;2023-12-20T00:05:52;4.40;99.90
19755;DHT22;10036;47.812;9.274;2023-12-20T00:08:19;4.40;99.90
19755;DHT22;10036;47.812;9.274;2023-12-20T00:10:45;4.40;99.90
19755;DHT22;10036;47.812;9.274;2023-12-20T00:13:12;4.40;99.90
19755;DHT22;10036;47.812;9.274;2023-12-20T00:15:39;4.40;99.90
19755;DHT22;10036;47.812;9.274;2023-12-20T00:18:06;4.40;99.90
19755;DHT22;10036;47.812;9.274;2023-12-20T00:20:33;4.40;99.90
19755;DHT22;10036;47.812;9.274;2023-12-20T00:23:01;4.40;99.90
19755;DHT22;10036;47.812;9.274;2023-12-20T00:25:28;4.40;99.90
19755;DHT22;10036;47.812;9.274;2023-12-20T00:27:55;4.40;99.90
19755;DHT22;10036;47.812;9.274;2023-12-20T00:30:22;4.40;99.90
19755;DHT22;10036;47.812;9.274;2023-12-20T00:32:49;4.40;99.90
19755;DHT22;10036;47.812;9.274;2023-12-20T00:35:16;4.50;99.90
19755;DHT22;10036;47.812;9.274;2023-12-20T00:37:43;4.50;99.90
19755;DHT22;10036;47.812;9.274;2023-12-20T00:40:12;4.60;99.90
19755;DHT22;10036;47.812;9.274;2023-12-20T00:42:38;4.60;99.90
19755;DHT22;10036;47.812;9.274;2023-12-20T00:45:06;4.60;99.90
19755;DHT22;10036;47.812;9.274;2023-12-20T00:47:33;4.70;99.90
19755;DHT22;10036;47.812;9.274;2023-12-20T00:50:00;4.70;99.90
19755;DHT22;10036;47.812;9.274;2023-12-20T00:52:27;4.70;99.90
19755;DHT22;10036;47.812;9.274;2023-12-20T00:54:54;4.70;99.90
19755;DHT22;10036;47.812;9.274;2023-12-20T00:57:22;4.60;99.90
19755;DHT22;10036;47.812;9.274;2023-12-20T00:59:49;4.50;99.90
19755;DHT22;10036;47.812;9.274;2023-12-20T01:02:16;4.50;99.90
19755;DHT22;10036;47.812;9.274;2023-12-20T01:04:43;4.60;99.90
19755;DHT22;10036;47.812;9.274;2023-12-20T01:07:09;4.70;99.90
19755;DHT22;10036;47.812;9.274;2023-12-20T01:09:36;4.70;99.90
19755;DHT22;10036;47.812;9.274;2023-12-20T01:12:03;4.70;99.90
19755;DHT22;10036;47.812;9.274;2023-12-20T01:14:32;4.70;99.90
19755;DHT22;10036;47.812;9.274;2023-12-20T01:16:59;4.80;99.90
19755;DHT22;10036;47.812;9.274;2023-12-20T01:19:26;4.90;99.90
19755;DHT22;10036;47.812;9.274;2023-12-20T01:21:54;4.80;99.90
19755;DHT22;10036;47.812;9.274;2023-12-20T01:24:22;4.90;99.90
19755;DHT22;10036;47.812;9.274;2023-12-20T01:26:48;4.90;99.90
19755;DHT22;10036;47.812;9.274;2023-12-20T01:29:15;4.80;99.90
19755;DHT22;10036;47.812;9.274;2023-12-20T01:31:43;4.70;99.90
19755;DHT22;10036;47.812;9.274;2023-12-20T01:34:10;4.60;99.90
19755;DHT22;10036;47.812;9.274;2023-12-20T01:36:37;4.60;99.90
19755;DHT22;10036;47.812;9.274;2023-12-20T01:39:04;4.60;99.90
19755;DHT22;10036;47.812;9.274;2023-12-20T01:41:31;4.60;99.90
19755;DHT22;10036;47.812;9.274;2023-12-20T01:43:58;4.60;99.90
19755;DHT22;10036;47.812;9.274;2023-12-20T01:46:25;4.60;99.90
19755;DHT22;10036;47.812;9.274;2023-12-20T01:48:54;4.60;99.90
19755;DHT22;10036;47.812;9.274;2023-12-20T01:51:21;4.60;99.90
19755;DHT22;10036;47.812;9.274;2023-12-20T01:53:48;4.60;99.90
19755;DHT22;10036;47.812;9.274;2023-12-20T01:56:16;4.60;99.90
19755;DHT22;10036;47.812;9.274;2023-12-20T01:58:44;4.60;99.90
19755;DHT22;10036;47.812;9.274;2023-12-20T02:01:12;4.60;99.90
19755;DHT22;10036;47.812;9.274;2023-12-20T02:03:39;4.60;99.90
19755;DHT22;10036;47.812;9.274;2023-12-20T02:06:09;4.60;99.90
19755;DHT22;10036;47.812;9.274;2023-12-20T02:08:36;4.60;99.90
19755;DHT22;10036;47.812;9.274;2023-12-20T02:11:03;4.60;99.90
19755;DHT22;10036;47.812;9.274;2023-12-20T02:13:30;4.60;99.90
19755;DHT22;10036;47.812;9.274;2023-12-20T02:15:57;4.60;99.90
19755;DHT22;10036;47.812;9.274;2023-12-20T02:18:24;4.60;99.90
19755;DHT22;10036;47.812;9.274;2023-12-20T02:20:51;4.60;99.90
19755;DHT22;10036;47.812;9.274;2023-12-20T02:23:20;4.60;99.90
19755;DHT22;10036;47.812;9.274;2023-12-20T02:25:47;4.60;99.90
19755;DHT22;10036;47.812;9.274;2023-12-20T02:28:14;4.60;99.90
19755;DHT22;10036;47.812;9.274;2023-12-20T02:30:41;4.60;99.90
19755;DHT22;10036;47.812;9.274;2023-12-20T02:33:10;4.60;99.90
19755;DHT22;10036;47.812;9.274;2023-12-20T02:35:38;4.60;99.90
19755;DHT22;10036;47.812;9.274;2023-12-20T02:38:05;4.60;99.90
19755;DHT22;10036;47.812;9.274;2023-12-20T02:40:33;4.70;99.90
19755;DHT22;10036;47.812;9.274;2023-12-20T02:43:00;4.70;99.90
19755;DHT22;10036;47.812;9.274;2023-12-20T02:45:27;4.70;99.90
19755;DHT22;10036;47.812;9.274;2023-12-20T02:47:54;4.70;99.90
19755;DHT22;10036;47.812;9.274;2023-12-20T02:50:21;4.70;99.90
19755;DHT22;10036;47.812;9.274;2023-12-20T02:52:48;4.60;99.90
19755;DHT22;10036;47.812;9.274;2023-12-20T02:55:15;4.60;99.90
19755;DHT22;10036;47.812;9.274;2023-12-20T02:57:43;4.60;99.90
19755;DHT22;10036;47.812;9.274;2023-12-20T03:00:10;4.60;99.90
19755;DHT22;10036;47.812;9.274;2023-12-20T03:02:37;4.60;99.90
19755;DHT22;10036;47.812;9.274;2023-12-20T03:05:05;4.70;99.90
19755;DHT22;10036;47.812;9.274;2023-12-20T03:07:31;4.70;99.90
19755;DHT22;10036;47.812;9.274;2023-12-20T03:09:58;4.70;99.90
19755;DHT22;10036;47.812;9.274;2023-12-20T03:12:25;4.70;99.90
19755;DHT22;10036;47.812;9.274;2023-12-20T03:14:53;4.70;99.90
19755;DHT22;10036;47.812;9.274;2023-12-20T03:17:20;4.70;99.90
19755;DHT22;10036;47.812;9.274;2023-12-20T03:19:47;4.70;99.90
19755;DHT22;10036;47.812;9.274;2023-12-20T03:22:14;4.70;99.90
19755;DHT22;10036;47.812;9.274;2023-12-20T03:24:41;4.70;99.90
19755;DHT22;10036;47.812;9.274;2023-12-20T03:27:08;4.70;99.90
19755;DHT22;10036;47.812;9.274;2023-12-20T03:29:34;4.70;99.90
19755;DHT22;10036;47.812;9.274;2023-12-20T03:32:03;4.70;99.90
19755;DHT22;10036;47.812;9.274;2023-12-20T03:34:30;4.60;99.90
19755;DHT22;10036;47.812;9.274;2023-12-20T03:36:57;4.60;99.90
19755;DHT22;10036;47.812;9.274;2023-12-20T03:39:24;4.70;99.90
19755;DHT22;10036;47.812;9.274;2023-12-20T03:41:51;4.70;99.90
19755;DHT22;10036;47.812;9.274;2023-12-20T03:44:17;4.60;99.90
19755;DHT22;10036;47.812;9.274;2023-12-20T03:46:44;4.60;99.90
19755;DHT22;10036;47.812;9.274;2023-12-20T03:49:13;4.60;99.90
19755;DHT22;10036;47.812;9.274;2023-12-20T03:51:40;4.50;99.90
19755;DHT22;10036;47.812;9.274;2023-12-20T03:54:07;4.50;99.90
19755;DHT22;10036;47.812;9.274;2023-12-20T03:56:34;4.50;99.90
19755;DHT22;10036;47.812;9.274;2023-12-20T03:59:01;4.40;99.90
19755;DHT22;10036;47.812;9.274;2023-12-20T04:01:28;4.40;99.90
19755;DHT22;10036;47.812;9.274;2023-12-20T04:03:54;4.30;99.90
19755;DHT22;10036;47.812;9.274;2023-12-20T04:06:23;4.30;99.90
19755;DHT22;10036;47.812;9.274;2023-12-20T04:08:49;4.30;99.90
19755;DHT22;10036;47.812;9.274;2023-12-20T04:11:16;4.30;99.90
19755;DHT22;10036;47.812;9.274;2023-12-20T04:13:43;4.30;99.90
19755;DHT22;10036;47.812;9.274;2023-12-20T04:16:10;4.30;99.90
19755;DHT22;10036;47.812;9.274;2023-12-20T04:18:37;4.30;99.90
19755;DHT22;10036;47.812;9.274;2023-12-20T04:21:04;4.30;99.90
19755;DHT22;10036;47.812;9.274;2023-12-20T04:23:32;4.20;99.90
19755;DHT22;10036;47.812;9.274;2023-12-20T04:25:59;4.20;99.90
19755;DHT22;10036;47.812;9.274;2023-12-20T04:28:26;4.20;99.90
19755;DHT22;10036;47.812;9.274;2023-12-20T04:30:55;4.20;99.90
19755;DHT22;10036;47.812;9.274;2023-12-20T04:33:22;4.20;99.90
19755;DHT22;10036;47.812;9.274;2023-12-20T04:35:50;4.20;99.90
19755;DHT22;10036;47.812;9.274;2023-12-20T04:38:17;4.30;99.90
19755;DHT22;10036;47.812;9.274;2023-12-20T04:40:45;4.20;99.90
19755;DHT22;10036;47.812;9.274;2023-12-20T04:43:13;4.20;99.90
19755;DHT22;10036;47.812;9.274;2023-12-20T04:45:40;4.30;99.90
19755;DHT22;10036;47.812;9.274;2023-12-20T04:48:07;4.20;99.90
19755;DHT22;10036;47.812;9.274;2023-12-20T04:50:34;4.30;99.90
19755;DHT22;10036;47.812;9.274;2023-12-20T04:53:01;4.20;99.90
19755;DHT22;10036;47.812;9.274;2023-12-20T04:55:28;4.30;99.90
19755;DHT22;10036;47.812;9.274;2023-12-20T04:57:56;4.20;99.90
19755;DHT22;10036;47.812;9.274;2023-12-20T05:00:23;4.30;99.90
19755;DHT22;10036;47.812;9.274;2023-12-20T05:02:50;4.30;99.90
19755;DHT22;10036;47.812;9.274;2023-12-20T05:05:17;4.30;99.90
19755;DHT22;10036;47.812;9.274;2023-12-20T05:07:44;4.30;99.90
19755;DHT22;10036;47.812;9.274;2023-12-20T05:10:11;4.30;99.90
19755;DHT22;10036;47.812;9.274;2023-12-20T05:12:38;4.30;99.90
19755;DHT22;10036;47.812;9.274;2023-12-20T05:15:07;4.30;99.90
19755;DHT22;10036;47.812;9.274;2023-12-20T05:17:34;4.30;99.90
19755;DHT22;10036;47.812;9.274;2023-12-20T05:20:01;4.30;99.90
19755;DHT22;10036;47.812;9.274;2023-12-20T05:22:28;4.30;99.90
19755;DHT22;10036;47.812;9.274;2023-12-20T05:24:55;4.30;99.90
19755;DHT22;10036;47.812;9.274;2023-12-20T05:27:22;4.30;99.90
19755;DHT22;10036;47.812;9.274;2023-12-20T05:29:48;4.30;99.90
19755;DHT22;10036;47.812;9.274;2023-12-20T05:32:17;4.40;99.90
19755;DHT22;10036;47.812;9.274;2023-12-20T05:38:05;4.40;99.90
19755;DHT22;10036;47.812;9.274;2023-12-20T05:40:32;4.40;99.90
19755;DHT22;10036;47.812;9.274;2023-12-20T05:42:59;4.40;99.90
19755;DHT22;10036;47.812;9.274;2023-12-20T05:45:25;4.40;99.90
19755;DHT22;10036;47.812;9.274;2023-12-20T05:47:54;4.40;99.90
19755;DHT22;10036;47.812;9.274;2023-12-20T05:50:21;4.40;99.90
19755;DHT22;10036;47.812;9.274;2023-12-20T05:52:48;4.40;99.90
19755;DHT22;10036;47.812;9.274;2023-12-20T05:55:14;4.40;99.90
19755;DHT22;10036;47.812;9.274;2023-12-20T05:57:41;4.50;99.90
19755;DHT22;10036;47.812;9.274;2023-12-20T06:00:10;4.50;99.90
19755;DHT22;10036;47.812;9.274;2023-12-20T06:02:37;4.50;99.90
19755;DHT22;10036;47.812;9.274;2023-12-20T06:05:06;4.50;99.90
19755;DHT22;10036;47.812;9.274;2023-12-20T06:07:33;4.50;99.90
19755;DHT22;10036;47.812;9.274;2023-12-20T06:10:00;4.50;99.90
19755;DHT22;10036;47.812;9.274;2023-12-20T06:12:26;4.50;99.90
19755;DHT22;10036;47.812;9.274;2023-12-20T06:14:54;4.50;99.90
19755;DHT22;10036;47.812;9.274;2023-12-20T06:17:21;4.50;99.90
19755;DHT22;10036;47.812;9.274;2023-12-20T06:19:48;4.50;99.90
19755;DHT22;10036;47.812;9.274;2023-12-20T06:22:16;4.50;99.90
19755;DHT22;10036;47.812;9.274;2023-12-20T06:24:43;4.50;99.90
19755;DHT22;10036;47.812;9.274;2023-12-20T06:27:10;4.50;99.90
19755;DHT22;10036;47.812;9.274;2023-12-20T06:29:36;4.40;99.90
19755;DHT22;10036;47.812;9.274;2023-12-20T06:32:04;4.50;99.90
19755;DHT22;10036;47.812;9.274;2023-12-20T06:34:31;4.50;99.90
19755;DHT22;10036;47.812;9.274;2023-12-20T06:36:58;4.50;99.90
19755;DHT22;10036;47.812;9.274;2023-12-20T06:39:26;4.50;99.90
19755;DHT22;10036;47.812;9.274;2023-12-20T06:41:53;4.50;99.90
19755;DHT22;10036;47.812;9.274;2023-12-20T06:44:20;4.60;99.90
19755;DHT22;10036;47.812;9.274;2023-12-20T06:46:47;4.50;99.90
19755;DHT22;10036;47.812;9.274;2023-12-20T06:49:14;4.60;99.90
19755;DHT22;10036;47.812;9.274;2023-12-20T06:51:40;4.60;99.90
19755;DHT22;10036;47.812;9.274;2023-12-20T06:54:07;4.60;99.90
19755;DHT22;10036;47.812;9.274;2023-12-20T06:56:36;4.60;99.90
19755;DHT22;10036;47.812;9.274;2023-12-20T06:59:03;4.60;99.90
19755;DHT22;10036;47.812;9.274;2023-12-20T07:01:29;4.60;99.90
19755;DHT22;10036;47.812;9.274;2023-12-20T07:03:56;4.60;99.90
19755;DHT22;10036;47.812;9.274;2023-12-20T07:06:23;4.60;99.90
19755;DHT22;10036;47.812;9.274;2023-12-20T07:08:51;4.60;99.90
19755;DHT22;10036;47.812;9.274;2023-12-20T07:11:18;4.70;99.90
19755;DHT22;10036;47.812;9.274;2023-12-20T07:13:46;4.70;99.90
19755;DHT22;10036;47.812;9.274;2023-12-20T07:16:14;4.70;99.90
19755;DHT22;10036;47.812;9.274;2023-12-20T07:18:41;4.70;99.90
19755;DHT22;10036;47.812;9.274;2023-12-20T07:21:08;4.70;99.90
19755;DHT22;10036;47.812;9.274;2023-12-20T07:23:34;4.70;99.90
19755;DHT22;10036;47.812;9.274;2023-12-20T07:26:01;4.70;99.90
19755;DHT22;10036;47.812;9.274;2023-12-20T07:28:29;4.70;99.90
19755;DHT22;10036;47.812;9.274;2023-12-20T07:30:57;4.70;99.90
19755;DHT22;10036;47.812;9.274;2023-12-20T07:33:24;4.80;99.90
19755;DHT22;10036;47.812;9.274;2023-12-20T07:35:51;4.80;99.90
19755;DHT22;10036;47.812;9.274;2023-12-20T07:38:18;4.80;99.90
19755;DHT22;10036;47.812;9.274;2023-12-20T07:40:45;4.80;99.90
19755;DHT22;10036;47.812;9.274;2023-12-20T07:43:12;4.80;99.90
19755;DHT22;10036;47.812;9.274;2023-12-20T07:45:38;4.80;99.90
19755;DHT22;10036;47.812;9.274;2023-12-20T07:48:07;4.80;99.90
19755;DHT22;10036;47.812;9.274;2023-12-20T07:50:35;4.80;99.90
19755;DHT22;10036;47.812;9.274;2023-12-20T07:53:02;4.80;99.90
19755;DHT22;10036;47.812;9.274;2023-12-20T07:55:29;4.80;99.90
19755;DHT22;10036;47.812;9.274;2023-12-20T07:57:58;4.80;99.90
19755;DHT22;10036;47.812;9.274;2023-12-20T08:00:25;4.90;99.90
19755;DHT22;10036;47.812;9.274;2023-12-20T08:02:51;4.90;99.90
19755;DHT22;10036;47.812;9.274;2023-12-20T08:05:19;4.90;99.90
19755;DHT22;10036;47.812;9.274;2023-12-20T08:07:46;4.90;99.90
19755;DHT22;10036;47.812;9.274;2023-12-20T08:10:13;4.90;99.90
19755;DHT22;10036;47.812;9.274;2023-12-20T08:12:40;5.00;99.90
19755;DHT22;10036;47.812;9.274;2023-12-20T08:15:07;5.00;99.90
19755;DHT22;10036;47.812;9.274;2023-12-20T08:17:34;5.00;99.90
19755;DHT22;10036;47.812;9.274;2023-12-20T08:20:01;5.00;99.90
19755;DHT22;10036;47.812;9.274;2023-12-20T08:22:29;5.10;99.90
19755;DHT22;10036;47.812;9.274;2023-12-20T08:24:56;5.10;99.90
19755;DHT22;10036;47.812;9.274;2023-12-20T08:27:23;5.00;99.90
19755;DHT22;10036;47.812;9.274;2023-12-20T08:29:51;5.00;99.90
19755;DHT22;10036;47.812;9.274;2023-12-20T08:32:18;5.00;99.90
19755;DHT22;10036;47.812;9.274;2023-12-20T08:34:45;5.00;99.90
19755;DHT22;10036;47.812;9.274;2023-12-20T08:37:11;5.10;99.90
19755;DHT22;10036;47.812;9.274;2023-12-20T08:39:39;5.10;99.90
19755;DHT22;10036;47.812;9.274;2023-12-20T08:42:06;5.10;99.90
19755;DHT22;10036;47.812;9.274;2023-12-20T08:44:33;5.10;99.90
19755;DHT22;10036;47.812;9.274;2023-12-20T08:47:00;5.10;99.90
19755;DHT22;10036;47.812;9.274;2023-12-20T08:49:27;5.10;99.90
19755;DHT22;10036;47.812;9.274;2023-12-20T08:51:54;5.10;99.90
19755;DHT22;10036;47.812;9.274;2023-12-20T08:54:21;5.10;99.90
19755;DHT22;10036;47.812;9.274;2023-12-20T08:56:49;5.10;99.90
19755;DHT22;10036;47.812;9.274;2023-12-20T08:59:16;5.10;99.90
19755;DHT22;10036;47.812;9.274;2023-12-20T09:01:44;5.10;99.90
19755;DHT22;10036;47.812;9.274;2023-12-20T09:04:12;5.10;99.90
19755;DHT22;10036;47.812;9.274;2023-12-20T09:06:38;5.10;99.90
19755;DHT22;10036;47.812;9.274;2023-12-20T09:09:05;5.20;99.90
19755;DHT22;10036;47.812;9.274;2023-12-20T09:11:34;5.20;99.90
19755;DHT22;10036;47.812;9.274;2023-12-20T09:14:02;5.20;99.90
19755;DHT22;10036;47.812;9.274;2023-12-20T09:16:29;5.20;99.90
19755;DHT22;10036;47.812;9.274;2023-12-20T09:18:57;5.20;99.90
19755;DHT22;10036;47.812;9.274;2023-12-20T09:21:23;5.20;99.90
19755;DHT22;10036;47.812;9.274;2023-12-20T09:23:51;5.30;99.90
19755;DHT22;10036;47.812;9.274;2023-12-20T09:26:18;5.40;99.90
19755;DHT22;10036;47.812;9.274;2023-12-20T09:28:45;5.40;99.90
19755;DHT22;10036;47.812;9.274;2023-12-20T09:31:13;5.40;99.90
19755;DHT22;10036;47.812;9.274;2023-12-20T09:33:40;5.40;99.90
19755;DHT22;10036;47.812;9.274;2023-12-20T09:36:07;5.50;99.90
19755;DHT22;10036;47.812;9.274;2023-12-20T09:38:34;5.50;99.90
19755;DHT22;10036;47.812;9.274;2023-12-20T09:41:01;5.50;99.90
19755;DHT22;10036;47.812;9.274;2023-12-20T09:43:30;5.60;99.90
19755;DHT22;10036;47.812;9.274;2023-12-20T09:46:00;5.60;99.90
19755;DHT22;10036;47.812;9.274;2023-12-20T09:48:29;5.60;99.90
19755;DHT22;10036;47.812;9.274;2023-12-20T09:50:56;5.60;99.90
19755;DHT22;10036;47.812;9.274;2023-12-20T09:53:25;5.60;99.90
19755;DHT22;10036;47.812;9.274;2023-12-20T09:55:56;5.70;99.90
19755;DHT22;10036;47.812;9.274;2023-12-20T09:58:24;5.70;99.90
19755;DHT22;10036;47.812;9.274;2023-12-20T10:00:51;5.70;99.90
19755;DHT22;10036;47.812;9.274;2023-12-20T10:03:23;5.70;99.90
19755;DHT22;10036;47.812;9.274;2023-12-20T10:05:52;5.60;99.90
19755;DHT22;10036;47.812;9.274;2023-12-20T10:08:21;5.60;99.90
19755;DHT22;10036;47.812;9.274;2023-12-20T10:10:48;5.60;99.90
19755;DHT22;10036;47.812;9.274;2023-12-20T10:13:15;5.60;99.90
19755;DHT22;10036;47.812;9.274;2023-12-20T10:15:43;5.60;99.90
19755;DHT22;10036;47.812;9.274;2023-12-20T10:18:11;5.60;99.90
19755;DHT22;10036;47.812;9.274;2023-12-20T10:20:40;5.70;99.90
19755;DHT22;10036;47.812;9.274;2023-12-20T10:23:09;5.70;99.90
19755;DHT22;10036;47.812;9.274;2023-12-20T10:25:36;5.60;99.90
19755;DHT22;10036;47.812;9.274;2023-12-20T10:28:10;5.60;99.90
19755;DHT22;10036;47.812;9.274;2023-12-20T10:30:38;5.70;99.90
19755;DHT22;10036;47.812;9.274;2023-12-20T10:33:05;5.70;99.90
19755;DHT22;10036;47.812;9.274;2023-12-20T10:35:33;5.80;99.90
19755;DHT22;10036;47.812;9.274;2023-12-20T10:38:03;5.80;99.90
19755;DHT22;10036;47.812;9.274;2023-12-20T10:40:34;5.80;99.90
19755;DHT22;10036;47.812;9.274;2023-12-20T10:43:03;5.80;99.90
19755;DHT22;10036;47.812;9.274;2023-12-20T10:45:30;5.90;99.90
19755;DHT22;10036;47.812;9.274;2023-12-20T10:47:58;5.90;99.90
19755;DHT22;10036;47.812;9.274;2023-12-20T10:50:26;5.90;99.90
19755;DHT22;10036;47.812;9.274;2023-12-20T10:52:54;6.00;99.90
19755;DHT22;10036;47.812;9.274;2023-12-20T10:55:22;6.00;99.90
19755;DHT22;10036;47.812;9.274;2023-12-20T10:57:51;6.00;99.90
19755;DHT22;10036;47.812;9.274;2023-12-20T11:00:19;6.10;99.90
19755;DHT22;10036;47.812;9.274;2023-12-20T11:02:49;6.10;99.90
19755;DHT22;10036;47.812;9.274;2023-12-20T11:05:24;6.10;99.90
19755;DHT22;10036;47.812;9.274;2023-12-20T11:07:57;6.10;99.90
19755;DHT22;10036;47.812;9.274;2023-12-20T11:10:29;6.10;99.90
19755;DHT22;10036;47.812;9.274;2023-12-20T11:13:05;6.20;99.90
19755;DHT22;10036;47.812;9.274;2023-12-20T11:15:35;6.20;99.90
19755;DHT22;10036;47.812;9.274;2023-12-20T11:18:04;6.10;99.90
19755;DHT22;10036;47.812;9.274;2023-12-20T11:20:39;6.10;99.90
19755;DHT22;10036;47.812;9.274;2023-12-20T11:23:06;6.10;99.90
19755;DHT22;10036;47.812;9.274;2023-12-20T11:25:47;6.20;99.90
19755;DHT22;10036;47.812;9.274;2023-12-20T11:28:15;6.20;99.90
19755;DHT22;10036;47.812;9.274;2023-12-20T11:30:48;6.30;99.90
19755;DHT22;10036;47.812;9.274;2023-12-20T11:33:16;6.30;99.90
19755;DHT22;10036;47.812;9.274;2023-12-20T11:35:45;6.40;99.90
19755;DHT22;10036;47.812;9.274;2023-12-20T11:38:13;6.40;99.90
19755;DHT22;10036;47.812;9.274;2023-12-20T11:40:41;6.40;99.90
19755;DHT22;10036;47.812;9.274;2023-12-20T11:43:08;6.50;99.90
19755;DHT22;10036;47.812;9.274;2023-12-20T11:45:36;6.40;99.90
19755;DHT22;10036;47.812;9.274;2023-12-20T11:48:04;6.40;99.90
19755;DHT22;10036;47.812;9.274;2023-12-20T11:50:31;6.40;99.90
19755;DHT22;10036;47.812;9.274;2023-12-20T11:52:58;6.40;99.90
19755;DHT22;10036;47.812;9.274;2023-12-20T11:55:25;6.50;99.90
19755;DHT22;10036;47.812;9.274;2023-12-20T11:57:52;6.40;99.90
19755;DHT22;10036;47.812;9.274;2023-12-20T12:00:19;6.40;99.90
19755;DHT22;10036;47.812;9.274;2023-12-20T12:02:58;6.40;99.90
19755;DHT22;10036;47.812;9.274;2023-12-20T12:05:25;6.50;99.90
19755;DHT22;10036;47.812;9.274;2023-12-20T12:07:53;6.50;99.90
19755;DHT22;10036;47.812;9.274;2023-12-20T12:10:20;6.40;99.90
19755;DHT22;10036;47.812;9.274;2023-12-20T12:12:46;6.40;99.90
19755;DHT22;10036;47.812;9.274;2023-12-20T12:15:14;6.40;99.90
19755;DHT22;10036;47.812;9.274;2023-12-20T12:17:41;6.40;99.90
19755;DHT22;10036;47.812;9.274;2023-12-20T12:20:10;6.40;99.90
19755;DHT22;10036;47.812;9.274;2023-12-20T12:22:38;6.40;99.90
19755;DHT22;10036;47.812;9.274;2023-12-20T12:25:11;6.40;99.90
19755;DHT22;10036;47.812;9.274;2023-12-20T12:27:40;6.30;99.90
19755;DHT22;10036;47.812;9.274;2023-12-20T12:30:09;6.20;99.90
19755;DHT22;10036;47.812;9.274;2023-12-20T12:32:38;6.30;99.90
19755;DHT22;10036;47.812;9.274;2023-12-20T12:35:05;6.30;99.90
19755;DHT22;10036;47.812;9.274;2023-12-20T12:37:38;6.30;99.90
19755;DHT22;10036;47.812;9.274;2023-12-20T12:40:06;6.20;99.90
19755;DHT22;10036;47.812;9.274;2023-12-20T12:42:33;6.20;99.90
19755;DHT22;10036;47.812;9.274;2023-12-20T12:45:00;6.10;99.90
19755;DHT22;10036;47.812;9.274;2023-12-20T12:47:26;6.10;99.90
19755;DHT22;10036;47.812;9.274;2023-12-20T12:49:54;6.00;99.90
19755;DHT22;10036;47.812;9.274;2023-12-20T12:52:20;5.90;99.90
19755;DHT22;10036;47.812;9.274;2023-12-20T12:54:48;5.90;99.90
19755;DHT22;10036;47.812;9.274;2023-12-20T12:57:16;5.90;99.90
19755;DHT22;10036;47.812;9.274;2023-12-20T12:59:43;5.90;99.90
19755;DHT22;10036;47.812;9.274;2023-12-20T13:02:11;5.90;99.90
19755;DHT22;10036;47.812;9.274;2023-12-20T13:04:38;5.90;99.90
19755;DHT22;10036;47.812;9.274;2023-12-20T13:07:05;5.90;99.90
19755;DHT22;10036;47.812;9.274;2023-12-20T13:09:32;5.90;99.90
19755;DHT22;10036;47.812;9.274;2023-12-20T13:12:01;5.90;99.90
19755;DHT22;10036;47.812;9.274;2023-12-20T13:14:29;5.90;99.90
19755;DHT22;10036;47.812;9.274;2023-12-20T13:16:56;5.90;99.90
19755;DHT22;10036;47.812;9.274;2023-12-20T13:19:22;5.90;99.90
19755;DHT22;10036;47.812;9.274;2023-12-20T13:21:49;5.90;99.90
19755;DHT22;10036;47.812;9.274;2023-12-20T13:24:15;6.00;99.90
19755;DHT22;10036;47.812;9.274;2023-12-20T13:26:42;6.00;99.90
19755;DHT22;10036;47.812;9.274;2023-12-20T13:29:11;6.00;99.90
19755;DHT22;10036;47.812;9.274;2023-12-20T13:31:37;6.00;99.90
19755;DHT22;10036;47.812;9.274;2023-12-20T13:34:05;5.90;99.90
19755;DHT22;10036;47.812;9.274;2023-12-20T13:36:31;5.90;99.90
19755;DHT22;10036;47.812;9.274;2023-12-20T13:38:58;5.90;99.90
19755;DHT22;10036;47.812;9.274;2023-12-20T13:41:25;5.90;99.90
19755;DHT22;10036;47.812;9.274;2023-12-20T13:43:52;5.70;99.90
19755;DHT22;10036;47.812;9.274;2023-12-20T13:46:21;5.70;99.90
19755;DHT22;10036;47.812;9.274;2023-12-20T13:48:48;5.60;99.90
19755;DHT22;10036;47.812;9.274;2023-12-20T13:51:15;5.50;99.90
19755;DHT22;10036;47.812;9.274;2023-12-20T13:53:42;5.60;99.90
19755;DHT22;10036;47.812;9.274;2023-12-20T13:56:09;5.60;99.90
19755;DHT22;10036;47.812;9.274;2023-12-20T13:58:36;5.60;99.90
19755;DHT22;10036;47.812;9.274;2023-12-20T14:01:03;5.70;99.90
19755;DHT22;10036;47.812;9.274;2023-12-20T14:03:31;5.70;99.90
19755;DHT22;10036;47.812;9.274;2023-12-20T14:05:58;5.70;99.90
19755;DHT22;10036;47.812;9.274;2023-12-20T14:08:25;5.70;99.90
19755;DHT22;10036;47.812;9.274;2023-12-20T14:10:52;5.70;99.90
19755;DHT22;10036;47.812;9.274;2023-12-20T14:13:19;5.70;99.90
19755;DHT22;10036;47.812;9.274;2023-12-20T14:15:46;5.70;99.90
19755;DHT22;10036;47.812;9.274;2023-12-20T14:18:15;5.70;99.90
19755;DHT22;10036;47.812;9.274;2023-12-20T14:20:43;5.80;99.90
19755;DHT22;10036;47.812;9.274;2023-12-20T14:23:12;5.70;99.90
19755;DHT22;10036;47.812;9.274;2023-12-20T14:25:41;5.70;99.90
19755;DHT22;10036;47.812;9.274;2023-12-20T14:28:08;5.60;99.90
19755;DHT22;10036;47.812;9.274;2023-12-20T14:30:35;5.60;99.90
19755;DHT22;10036;47.812;9.274;2023-12-20T14:33:04;5.60;99.90
19755;DHT22;10036;47.812;9.274;2023-12-20T14:35:31;5.50;99.90
19755;DHT22;10036;47.812;9.274;2023-12-20T14:37:59;5.50;99.90
19755;DHT22;10036;47.812;9.274;2023-12-20T14:40:26;5.50;99.90
19755;DHT22;10036;47.812;9.274;2023-12-20T14:42:53;5.40;99.90
19755;DHT22;10036;47.812;9.274;2023-12-20T14:45:20;5.30;99.90
19755;DHT22;10036;47.812;9.274;2023-12-20T14:47:47;5.10;99.90
19755;DHT22;10036;47.812;9.274;2023-12-20T14:50:14;5.10;99.90
19755;DHT22;10036;47.812;9.274;2023-12-20T14:52:44;5.10;99.90
19755;DHT22;10036;47.812;9.274;2023-12-20T14:55:13;5.00;99.90
19755;DHT22;10036;47.812;9.274;2023-12-20T14:57:40;5.00;99.90
19755;DHT22;10036;47.812;9.274;2023-12-20T15:00:07;4.90;99.90
19755;DHT22;10036;47.812;9.274;2023-12-20T15:02:34;4.90;99.90
19755;DHT22;10036;47.812;9.274;2023-12-20T15:05:01;4.90;99.90
19755;DHT22;10036;47.812;9.274;2023-12-20T15:07:28;4.80;99.90
19755;DHT22;10036;47.812;9.274;2023-12-20T15:09:55;4.80;99.90
19755;DHT22;10036;47.812;9.274;2023-12-20T15:12:23;4.70;99.90
19755;DHT22;10036;47.812;9.274;2023-12-20T15:14:50;4.70;99.90
19755;DHT22;10036;47.812;9.274;2023-12-20T15:17:17;4.60;99.90
19755;DHT22;10036;47.812;9.274;2023-12-20T15:19:44;4.60;99.90
19755;DHT22;10036;47.812;9.274;2023-12-20T15:22:11;4.60;99.90
19755;DHT22;10036;47.812;9.274;2023-12-20T15:24:38;4.60;99.90
19755;DHT22;10036;47.812;9.274;2023-12-20T15:27:06;4.60;99.90
19755;DHT22;10036;47.812;9.274;2023-12-20T15:29:34;4.50;99.90
19755;DHT22;10036;47.812;9.274;2023-12-20T15:32:02;4.50;99.90
19755;DHT22;10036;47.812;9.274;2023-12-20T15:34:29;4.50;99.90
19755;DHT22;10036;47.812;9.274;2023-12-20T15:36:56;4.40;99.90
19755;DHT22;10036;47.812;9.274;2023-12-20T15:39:23;4.40;99.90
19755;DHT22;10036;47.812;9.274;2023-12-20T15:41:50;4.40;99.90
19755;DHT22;10036;47.812;9.274;2023-12-20T15:44:17;4.40;99.90
19755;DHT22;10036;47.812;9.274;2023-12-20T15:46:45;4.40;99.90
19755;DHT22;10036;47.812;9.274;2023-12-20T15:49:12;4.40;99.90